GDANL EGSH-LFOP
Flight info
| Callsign | GDANL |
|---|---|
| Flight time | N/A |
| Altitude | FL060 |
| Route | DCT LAPRA DCT CLN/N0145F090 M189 JACKO/N0145F100 M189 DVR/N0145F090 L10 RINTI B3 TRACA/N0145F080 DCT BNE DCT ROU DCT |
| Aircraft | BE76/L-VGD/C |
Departure
| Time | N/A |
|---|---|
| Airport | Norwich Airport (EGSH) |
Arrival
| Time | 2026-04-26 12:10 |
|---|---|
| Airport | Rouen Vallée de Seine Airport (LFOP) |
| Time | Latitude | Longitude | Altitude | Speed | Heading |
|---|---|---|---|---|---|
| 2026-04-26 11:40 | 49.81436 | 1.47504 | 8310 ft | 166 kts | 224° |
| 2026-04-26 11:40 | 49.81188 | 1.47145 | 8313 ft | 166 kts | 223° |
| 2026-04-26 11:40 | 49.80811 | 1.46606 | 8317 ft | 166 kts | 223° |
| 2026-04-26 11:41 | 49.80199 | 1.45738 | 8310 ft | 166 kts | 223° |
| 2026-04-26 11:43 | 49.74462 | 1.37723 | 8313 ft | 166 kts | 222° |
| 2026-04-26 11:43 | 49.73676 | 1.36630 | 8313 ft | 166 kts | 222° |
| 2026-04-26 11:43 | 49.72803 | 1.35416 | 8306 ft | 166 kts | 222° |
| 2026-04-26 11:43 | 49.72052 | 1.34372 | 8305 ft | 165 kts | 221° |
| 2026-04-26 11:44 | 49.71701 | 1.33885 | 8306 ft | 165 kts | 221° |
| 2026-04-26 11:44 | 49.71245 | 1.33251 | 8306 ft | 165 kts | 221° |
| 2026-04-26 11:44 | 49.70866 | 1.32725 | 8307 ft | 165 kts | 221° |
| 2026-04-26 11:44 | 49.70473 | 1.32179 | 8304 ft | 165 kts | 221° |
| 2026-04-26 11:45 | 49.69828 | 1.31284 | 8304 ft | 165 kts | 221° |
| 2026-04-26 11:45 | 49.69523 | 1.30861 | 8302 ft | 165 kts | 221° |
| 2026-04-26 11:45 | 49.68975 | 1.30100 | 8306 ft | 165 kts | 221° |
| 2026-04-26 11:46 | 49.68381 | 1.29275 | 8309 ft | 166 kts | 221° |
| 2026-04-26 11:46 | 49.67725 | 1.28366 | 8308 ft | 166 kts | 221° |
| 2026-04-26 11:46 | 49.66968 | 1.27319 | 8306 ft | 166 kts | 221° |
| 2026-04-26 11:46 | 49.66420 | 1.26559 | 8247 ft | 169 kts | 221° |
| 2026-04-26 11:47 | 49.65914 | 1.25857 | 8192 ft | 171 kts | 221° |
| 2026-04-26 11:47 | 49.65217 | 1.24893 | 8093 ft | 175 kts | 221° |
| 2026-04-26 11:47 | 49.64517 | 1.23924 | 7992 ft | 176 kts | 221° |
| 2026-04-26 11:47 | 49.63751 | 1.22865 | 7891 ft | 177 kts | 221° |
| 2026-04-26 11:48 | 49.62808 | 1.21560 | 7774 ft | 177 kts | 221° |
| 2026-04-26 11:48 | 49.62062 | 1.20528 | 7678 ft | 178 kts | 221° |
| 2026-04-26 11:48 | 49.60682 | 1.18623 | 7513 ft | 178 kts | 221° |
| 2026-04-26 11:49 | 49.59778 | 1.17374 | 7404 ft | 178 kts | 221° |
| 2026-04-26 11:49 | 49.59005 | 1.16307 | 7306 ft | 178 kts | 221° |
| 2026-04-26 11:49 | 49.58195 | 1.15190 | 7206 ft | 178 kts | 221° |
| 2026-04-26 11:49 | 49.57406 | 1.14103 | 7107 ft | 178 kts | 221° |
| 2026-04-26 11:50 | 49.56687 | 1.13114 | 7011 ft | 178 kts | 221° |
| 2026-04-26 11:50 | 49.55816 | 1.11913 | 6890 ft | 178 kts | 221° |
| 2026-04-26 11:50 | 49.55141 | 1.10984 | 6807 ft | 178 kts | 221° |
| 2026-04-26 11:50 | 49.54351 | 1.09897 | 6717 ft | 178 kts | 221° |
| 2026-04-26 11:51 | 49.53561 | 1.08810 | 6622 ft | 178 kts | 220° |
| 2026-04-26 11:51 | 49.52802 | 1.07766 | 6524 ft | 178 kts | 221° |
| 2026-04-26 11:51 | 49.51979 | 1.06634 | 6428 ft | 178 kts | 220° |
| 2026-04-26 11:51 | 49.51082 | 1.05403 | 6331 ft | 178 kts | 220° |
| 2026-04-26 11:52 | 49.50362 | 1.04414 | 6252 ft | 178 kts | 220° |
| 2026-04-26 11:52 | 49.49553 | 1.03313 | 6152 ft | 177 kts | 218° |
| 2026-04-26 11:52 | 49.48763 | 1.02461 | 6058 ft | 173 kts | 211° |
| 2026-04-26 11:52 | 49.47810 | 1.01511 | 5929 ft | 169 kts | 211° |
| 2026-04-26 11:53 | 49.46212 | 0.99926 | 5698 ft | 166 kts | 211° |
| 2026-04-26 11:53 | 49.45377 | 0.99097 | 5582 ft | 165 kts | 211° |
| 2026-04-26 11:54 | 49.43640 | 0.97368 | 5344 ft | 164 kts | 211° |
| 2026-04-26 11:54 | 49.42863 | 0.96593 | 5240 ft | 163 kts | 211° |
| 2026-04-26 11:54 | 49.42144 | 0.95883 | 5140 ft | 163 kts | 211° |
| 2026-04-26 11:54 | 49.41231 | 0.94978 | 5017 ft | 162 kts | 211° |
| 2026-04-26 11:55 | 49.40304 | 0.94058 | 4887 ft | 162 kts | 211° |
| 2026-04-26 11:55 | 49.39419 | 0.93214 | 4764 ft | 162 kts | 204° |
| 2026-04-26 11:55 | 49.38567 | 0.92710 | 4659 ft | 160 kts | 194° |
| 2026-04-26 11:55 | 49.37839 | 0.92342 | 4565 ft | 160 kts | 196° |
| 2026-04-26 11:56 | 49.36923 | 0.91847 | 4456 ft | 160 kts | 197° |
| 2026-04-26 11:56 | 49.35931 | 0.91287 | 4336 ft | 159 kts | 197° |
| 2026-04-26 11:56 | 49.34980 | 0.90740 | 4206 ft | 155 kts | 197° |
| 2026-04-26 11:56 | 49.34438 | 0.90424 | 4126 ft | 154 kts | 197° |
| 2026-04-26 11:57 | 49.33826 | 0.90071 | 4033 ft | 152 kts | 197° |
| 2026-04-26 11:57 | 49.33142 | 0.89895 | 3919 ft | 149 kts | 172° |
| 2026-04-26 11:57 | 49.32415 | 0.90150 | 3814 ft | 146 kts | 159° |
| 2026-04-26 11:57 | 49.31834 | 0.90436 | 3726 ft | 146 kts | 158° |
| 2026-04-26 11:58 | 49.31268 | 0.90724 | 3640 ft | 144 kts | 158° |
| 2026-04-26 11:58 | 49.30702 | 0.91017 | 3551 ft | 143 kts | 158° |
| 2026-04-26 11:58 | 49.30047 | 0.91357 | 3450 ft | 143 kts | 158° |
| 2026-04-26 11:58 | 49.29414 | 0.91688 | 3349 ft | 143 kts | 158° |
| 2026-04-26 11:59 | 49.28910 | 0.91951 | 3268 ft | 142 kts | 158° |
| 2026-04-26 11:59 | 49.28305 | 0.92267 | 3190 ft | 141 kts | 157° |
| 2026-04-26 11:59 | 49.27772 | 0.92545 | 3125 ft | 140 kts | 157° |
| 2026-04-26 11:59 | 49.27189 | 0.92861 | 3057 ft | 138 kts | 152° |
| 2026-04-26 12:00 | 49.26567 | 0.94284 | 3076 ft | 120 kts | 91° |
| 2026-04-26 12:00 | 49.26647 | 0.95157 | 3079 ft | 116 kts | 77° |
| 2026-04-26 12:00 | 49.26786 | 0.95969 | 3075 ft | 107 kts | 75° |
| 2026-04-26 12:01 | 49.26932 | 0.96749 | 3078 ft | 95 kts | 74° |
| 2026-04-26 12:01 | 49.27054 | 0.97367 | 3076 ft | 95 kts | 73° |
| 2026-04-26 12:01 | 49.27195 | 0.98061 | 3082 ft | 101 kts | 73° |
| 2026-04-26 12:01 | 49.27345 | 0.98775 | 3080 ft | 104 kts | 73° |
| 2026-04-26 12:02 | 49.27517 | 0.99541 | 3078 ft | 106 kts | 71° |
| 2026-04-26 12:02 | 49.27660 | 1.00145 | 3078 ft | 106 kts | 71° |
| 2026-04-26 12:02 | 49.27800 | 1.00778 | 3079 ft | 106 kts | 73° |
| 2026-04-26 12:02 | 49.27940 | 1.01443 | 3078 ft | 105 kts | 73° |
| 2026-04-26 12:03 | 49.28081 | 1.02146 | 3080 ft | 105 kts | 74° |
| 2026-04-26 12:03 | 49.28222 | 1.02861 | 3053 ft | 107 kts | 74° |
| 2026-04-26 12:03 | 49.28391 | 1.03578 | 2973 ft | 111 kts | 62° |
| 2026-04-26 12:03 | 49.28727 | 1.04205 | 2895 ft | 112 kts | 49° |
| 2026-04-26 12:04 | 49.29327 | 1.05085 | 2753 ft | 110 kts | 46° |
| 2026-04-26 12:04 | 49.29699 | 1.05615 | 2662 ft | 110 kts | 46° |
| 2026-04-26 12:04 | 49.30046 | 1.06099 | 2576 ft | 111 kts | 45° |
| 2026-04-26 12:05 | 49.30342 | 1.06506 | 2506 ft | 110 kts | 45° |
| 2026-04-26 12:05 | 49.30717 | 1.07022 | 2412 ft | 109 kts | 45° |
| 2026-04-26 12:05 | 49.31086 | 1.07528 | 2317 ft | 104 kts | 45° |
| 2026-04-26 12:05 | 49.31401 | 1.07957 | 2227 ft | 96 kts | 45° |
| 2026-04-26 12:06 | 49.31719 | 1.08383 | 2151 ft | 97 kts | 44° |
| 2026-04-26 12:06 | 49.32069 | 1.08863 | 2065 ft | 97 kts | 44° |
| 2026-04-26 12:06 | 49.32464 | 1.09396 | 1964 ft | 97 kts | 45° |
| 2026-04-26 12:06 | 49.32986 | 1.10107 | 1846 ft | 90 kts | 44° |
| 2026-04-26 12:07 | 49.33423 | 1.10694 | 1721 ft | 85 kts | 47° |
| 2026-04-26 12:07 | 49.33873 | 1.11304 | 1609 ft | 89 kts | 46° |
| 2026-04-26 12:07 | 49.34326 | 1.11916 | 1489 ft | 84 kts | 45° |
| 2026-04-26 12:07 | 49.34749 | 1.12487 | 1375 ft | 73 kts | 45° |
| 2026-04-26 12:08 | 49.35144 | 1.13007 | 1266 ft | 73 kts | 44° |
| 2026-04-26 12:08 | 49.35529 | 1.13518 | 1170 ft | 73 kts | 44° |
| 2026-04-26 12:08 | 49.35908 | 1.14055 | 1075 ft | 71 kts | 47° |
| 2026-04-26 12:08 | 49.36268 | 1.14555 | 985 ft | 66 kts | 44° |
| 2026-04-26 12:09 | 49.36614 | 1.15021 | 891 ft | 67 kts | 44° |
| 2026-04-26 12:09 | 49.36939 | 1.15466 | 828 ft | 69 kts | 45° |
| 2026-04-26 12:09 | 49.37311 | 1.15966 | 732 ft | 70 kts | 44° |
| 2026-04-26 12:09 | 49.37666 | 1.16464 | 631 ft | 68 kts | 45° |
| 2026-04-26 12:10 | 49.38011 | 1.16930 | 537 ft | 67 kts | 44° |
| 2026-04-26 12:10 | 49.38296 | 1.17308 | 519 ft | 56 kts | 44° |
| 2026-04-26 12:10 | 49.38542 | 1.17651 | 521 ft | 36 kts | 43° |
| 2026-04-26 12:10 | 49.38639 | 1.17782 | 524 ft | 11 kts | 43° |
| 2026-04-26 12:11 | 49.38655 | 1.17867 | 524 ft | 9 kts | 125° |
| 2026-04-26 12:11 | 49.38618 | 1.17929 | 523 ft | 9 kts | 131° |
| 2026-04-26 12:11 | 49.38598 | 1.17963 | 522 ft | 0 kts | 132° |
| 2026-04-26 12:11 | 49.38578 | 1.18006 | 522 ft | 8 kts | 105° |
| 2026-04-26 12:12 | 49.38598 | 1.18057 | 523 ft | 6 kts | 38° |
| 2026-04-26 12:12 | 49.38638 | 1.18111 | 524 ft | 11 kts | 44° |
| 2026-04-26 12:12 | 49.38680 | 1.18167 | 525 ft | 4 kts | 42° |
| 2026-04-26 12:12 | 49.38691 | 1.18193 | 525 ft | 6 kts | 83° |
| 2026-04-26 12:13 | 49.38667 | 1.18244 | 525 ft | 1 kts | 126° |
| 2026-04-26 12:13 | 49.38660 | 1.18269 | 526 ft | 3 kts | 72° |
| 2026-04-26 12:13 | 49.38697 | 1.18316 | 526 ft | 8 kts | 42° |
| 2026-04-26 12:13 | 49.38734 | 1.18371 | 527 ft | 6 kts | 44° |
| 2026-04-26 12:14 | 49.38766 | 1.18416 | 528 ft | 0 kts | 44° |
| 2026-04-26 12:14 | 49.38776 | 1.18439 | 528 ft | 6 kts | 84° |
| 2026-04-26 12:14 | 49.38765 | 1.18472 | 528 ft | 1 kts | 129° |